createdAt,value
2023-04-21T00:00:31.722Z,96.38
2023-04-21T00:01:29.991Z,96.30
2023-04-21T00:02:27.476Z,96.70
2023-04-21T00:03:24.654Z,97.14
2023-04-21T00:04:21.496Z,96.92
2023-04-21T00:05:18.510Z,96.66
2023-04-21T00:06:22.386Z,96.81
2023-04-21T00:07:20.280Z,96.88
2023-04-21T00:08:18.138Z,96.91
2023-04-21T00:09:14.677Z,96.81
2023-04-21T00:10:11.961Z,96.97
2023-04-21T00:11:08.776Z,96.98
2023-04-21T00:12:05.494Z,97.01
2023-04-21T00:13:02.026Z,97.15
2023-04-21T00:13:58.606Z,97.22
2023-04-21T00:14:55.345Z,97.41
2023-04-21T00:15:51.971Z,97.36
2023-04-21T00:16:54.412Z,97.51
2023-04-21T00:17:51.079Z,97.94
2023-04-21T00:18:48.067Z,97.64
2023-04-21T00:19:45.001Z,97.87
2023-04-21T00:20:42.801Z,97.96
2023-04-21T00:21:39.595Z,98.05
2023-04-21T00:22:36.472Z,98.11
2023-04-21T00:23:33.145Z,97.80
2023-04-21T00:24:29.760Z,97.25
2023-04-21T00:25:26.714Z,97.00
2023-04-21T00:26:23.302Z,97.26
2023-04-21T00:27:20.024Z,97.38
2023-04-21T00:28:16.726Z,97.50
2023-04-21T00:29:13.357Z,96.96
2023-04-21T00:30:10.574Z,96.33
2023-04-21T00:31:07.213Z,96.18
2023-04-21T00:32:07.032Z,95.77
2023-04-21T00:33:03.671Z,95.03
2023-04-21T00:34:00.292Z,94.17
2023-04-21T00:34:56.919Z,93.42
2023-04-21T00:35:54.547Z,92.62
2023-04-21T00:36:51.094Z,92.53
2023-04-21T00:37:47.651Z,91.71
2023-04-21T00:38:44.248Z,91.36
2023-04-21T00:39:40.975Z,92.52
2023-04-21T00:40:37.579Z,93.21
2023-04-21T00:41:35.412Z,93.33
2023-04-21T00:42:31.991Z,92.65
2023-04-21T00:43:29.122Z,92.64
2023-04-21T00:44:25.718Z,92.83
2023-04-21T00:45:22.430Z,92.44
2023-04-21T00:46:19.021Z,92.35
2023-04-21T00:47:15.688Z,92.54
2023-04-21T00:48:12.513Z,92.73
2023-04-21T00:49:09.466Z,93.27
2023-04-21T00:50:06.417Z,93.44
2023-04-21T00:51:03.083Z,93.84
2023-04-21T00:52:00.592Z,93.79
2023-04-21T00:52:57.666Z,93.22
2023-04-21T00:53:55.859Z,93.13
2023-04-21T00:54:53.448Z,92.95
2023-04-21T00:55:50.880Z,92.89
2023-04-21T00:56:47.592Z,92.90
2023-04-21T00:57:44.899Z,92.99
2023-04-21T00:58:42.618Z,92.61
2023-04-21T00:59:39.229Z,91.63
2023-04-21T01:00:36.560Z,92.15
2023-04-21T01:01:34.424Z,92.86
2023-04-21T01:02:31.285Z,93.77
2023-04-21T01:03:28.437Z,94.14
2023-04-21T01:04:25.752Z,94.63
2023-04-21T01:05:23.086Z,95.04
2023-04-21T01:06:19.931Z,95.05
2023-04-21T01:07:16.648Z,94.63
2023-04-21T01:08:14.317Z,94.49
2023-04-21T01:09:12.755Z,94.62
2023-04-21T01:10:09.693Z,94.30
2023-04-21T01:11:11.159Z,94.18
2023-04-21T01:12:10.624Z,94.46
2023-04-21T01:13:07.176Z,94.10
2023-04-21T01:14:03.754Z,94.47
2023-04-21T01:15:00.866Z,94.29
2023-04-21T01:15:57.485Z,93.84
2023-04-21T01:16:54.273Z,93.30
2023-04-21T01:17:54.093Z,93.19
2023-04-21T01:18:52.217Z,92.92
2023-04-21T01:19:50.524Z,92.72
2023-04-21T01:20:47.161Z,93.24
2023-04-21T01:21:44.269Z,93.78
2023-04-21T01:22:42.711Z,94.10
2023-04-21T01:23:40.571Z,94.27
2023-04-21T01:24:45.246Z,94.35
2023-04-21T01:25:41.804Z,93.74
2023-04-21T01:26:38.426Z,93.92
2023-04-21T01:27:35.326Z,94.26
2023-04-21T01:28:32.314Z,94.56
2023-04-21T01:29:33.136Z,94.69
2023-04-21T01:30:29.777Z,94.75
2023-04-21T01:31:27.441Z,94.75
2023-04-21T01:32:29.171Z,94.76
2023-04-21T01:33:26.072Z,94.69
2023-04-21T01:34:22.647Z,94.01
2023-04-21T01:35:19.480Z,93.39
2023-04-21T01:36:16.059Z,93.32
2023-04-21T01:37:18.023Z,93.93
2023-04-21T01:38:19.627Z,93.46
2023-04-21T01:39:16.518Z,93.52
2023-04-21T01:40:13.871Z,94.20
2023-04-21T01:41:10.916Z,94.28
2023-04-21T01:42:08.754Z,94.72
2023-04-21T01:43:05.986Z,95.07
2023-04-21T01:44:02.654Z,95.17
2023-04-21T01:45:00.006Z,95.01
2023-04-21T01:45:56.821Z,95.18
2023-04-21T01:46:53.492Z,95.66
2023-04-21T01:47:50.105Z,95.58
2023-04-21T01:48:47.007Z,95.26
2023-04-21T01:49:43.574Z,95.02
2023-04-21T01:50:40.236Z,95.10
2023-04-21T01:51:36.839Z,95.22
2023-04-21T01:52:33.410Z,95.54
2023-04-21T01:53:30.008Z,96.44
2023-04-21T01:54:26.646Z,96.94
2023-04-21T01:55:23.329Z,97.00
2023-04-21T01:56:20.332Z,97.11
2023-04-21T01:57:17.599Z,97.65
2023-04-21T01:58:14.258Z,98.09
2023-04-21T01:59:10.914Z,98.14
2023-04-21T02:00:09.299Z,97.54
2023-04-21T02:01:05.949Z,97.17
2023-04-21T02:02:03.122Z,96.73
2023-04-21T02:02:59.966Z,96.03
2023-04-21T02:03:56.759Z,94.71
2023-04-21T02:04:53.494Z,93.67
2023-04-21T02:05:51.257Z,94.03
2023-04-21T02:06:47.884Z,94.29
2023-04-21T02:07:45.003Z,94.70
2023-04-21T02:08:41.683Z,94.64
2023-04-21T02:09:38.403Z,94.71
2023-04-21T02:10:35.221Z,95.80
2023-04-21T02:11:31.858Z,96.27
2023-04-21T02:12:28.499Z,96.34
2023-04-21T02:13:25.111Z,96.59
2023-04-21T02:14:21.664Z,96.70
2023-04-21T02:15:18.349Z,97.23
2023-04-21T02:16:14.973Z,97.17
2023-04-21T02:17:11.825Z,97.92
2023-04-21T02:18:08.628Z,97.97
2023-04-21T02:19:06.364Z,98.40
2023-04-21T02:20:04.354Z,98.94
2023-04-21T02:21:01.019Z,99.45
2023-04-21T02:21:57.698Z,99.74
2023-04-21T02:22:54.264Z,99.86
2023-04-21T02:23:52.047Z,99.87
2023-04-21T02:24:49.815Z,99.75
2023-04-21T02:25:46.382Z,99.69
2023-04-21T02:26:43.046Z,99.58
2023-04-21T02:27:39.717Z,99.22
2023-04-21T02:28:36.312Z,98.77
2023-04-21T02:29:32.924Z,98.73
2023-04-21T02:30:29.520Z,98.31
2023-04-21T02:31:26.264Z,98.80
2023-04-21T02:32:25.909Z,98.76
2023-04-21T02:33:23.067Z,98.61
2023-04-21T02:34:20.718Z,98.86
2023-04-21T02:35:17.362Z,98.89
2023-04-21T02:36:14.009Z,99.37
2023-04-21T02:37:10.773Z,99.03
2023-04-21T02:38:08.968Z,99.12
2023-04-21T02:39:05.640Z,99.07
2023-04-21T02:40:02.201Z,99.01
2023-04-21T02:40:58.961Z,98.67
2023-04-21T02:41:55.666Z,98.71
2023-04-21T02:42:52.299Z,98.68
2023-04-21T02:43:49.397Z,98.91
2023-04-21T02:44:46.119Z,98.68
2023-04-21T02:45:42.773Z,98.62
2023-04-21T02:46:42.254Z,98.07
2023-04-21T02:47:38.888Z,98.06
2023-04-21T02:48:36.606Z,97.98
2023-04-21T02:49:33.340Z,98.12
2023-04-21T02:50:30.140Z,97.70
2023-04-21T02:51:26.935Z,97.89
2023-04-21T02:52:23.616Z,97.98
2023-04-21T02:53:21.137Z,97.45
2023-04-21T02:54:17.723Z,97.86
2023-04-21T02:55:14.432Z,98.11
2023-04-21T02:56:11.096Z,98.27
2023-04-21T02:57:07.813Z,97.77
2023-04-21T02:58:04.422Z,97.60
2023-04-21T02:59:01.039Z,97.78
2023-04-21T02:59:57.685Z,97.61
2023-04-21T03:00:54.335Z,97.89
2023-04-21T03:01:51.126Z,97.72
2023-04-21T03:02:47.848Z,97.87
2023-04-21T03:03:44.679Z,97.81
2023-04-21T03:04:41.475Z,97.48
2023-04-21T03:05:38.227Z,97.57
2023-04-21T03:06:35.060Z,98.04
2023-04-21T03:07:31.653Z,98.17
2023-04-21T03:08:28.679Z,98.39
2023-04-21T03:09:25.484Z,98.18
2023-04-21T03:10:22.316Z,98.14
2023-04-21T03:11:18.948Z,98.43
2023-04-21T03:12:15.753Z,98.02
2023-04-21T03:13:12.360Z,98.75
2023-04-21T03:14:08.948Z,98.72
2023-04-21T03:15:06.398Z,98.76
2023-04-21T03:16:03.445Z,98.93
2023-04-21T03:17:00.180Z,98.43
2023-04-21T03:17:56.964Z,98.43
2023-04-21T03:18:53.679Z,99.01
2023-04-21T03:19:50.282Z,99.43
2023-04-21T03:20:46.877Z,99.08
2023-04-21T03:21:43.543Z,99.49
2023-04-21T03:22:40.352Z,99.72
2023-04-21T03:23:37.285Z,100.00
2023-04-21T03:24:33.943Z,99.46
2023-04-21T03:25:30.671Z,99.00
2023-04-21T03:26:27.344Z,99.31
2023-04-21T03:27:23.959Z,99.01
2023-04-21T03:28:20.668Z,98.62
2023-04-21T03:29:17.443Z,98.56
2023-04-21T03:30:14.343Z,98.69
2023-04-21T03:31:10.941Z,98.53
2023-04-21T03:32:07.646Z,99.21
2023-04-21T03:33:04.847Z,99.20
2023-04-21T03:34:01.659Z,99.23
2023-04-21T03:34:58.343Z,99.58
2023-04-21T03:35:54.989Z,99.40
2023-04-21T03:36:51.574Z,98.91
2023-04-21T03:37:49.826Z,99.63
2023-04-21T03:38:46.462Z,99.65
2023-04-21T03:39:43.106Z,99.62
2023-04-21T03:40:39.736Z,99.65
2023-04-21T03:41:36.496Z,99.52
2023-04-21T03:42:33.146Z,99.42
2023-04-21T03:43:29.767Z,99.56
2023-04-21T03:44:27.274Z,99.95
2023-04-21T03:45:24.244Z,99.40
2023-04-21T03:46:22.383Z,99.61
2023-04-21T03:47:19.081Z,99.63
2023-04-21T03:48:16.081Z,99.62
2023-04-21T03:49:12.653Z,99.61
2023-04-21T03:50:09.419Z,99.70
2023-04-21T03:51:06.043Z,99.45
2023-04-21T03:52:03.146Z,99.93
2023-04-21T03:52:59.801Z,99.39
2023-04-21T03:53:56.361Z,99.12
2023-04-21T03:54:52.934Z,99.60
2023-04-21T03:55:52.786Z,99.29
2023-04-21T03:56:49.376Z,100.00
2023-04-21T03:57:46.066Z,100.00
2023-04-21T03:58:42.798Z,100.00
2023-04-21T03:59:39.358Z,100.00
2023-04-21T04:00:35.982Z,100.00
2023-04-21T04:01:34.721Z,100.00
2023-04-21T04:02:31.457Z,100.00
2023-04-21T04:03:28.229Z,100.00
2023-04-21T04:04:25.279Z,100.00
2023-04-21T04:05:22.075Z,100.00
2023-04-21T04:06:18.696Z,100.00
2023-04-21T04:07:17.618Z,100.00
2023-04-21T04:08:14.317Z,100.00
2023-04-21T04:09:11.084Z,100.00
2023-04-21T04:10:07.879Z,100.00
2023-04-21T04:11:04.594Z,100.00
2023-04-21T04:12:03.436Z,100.00
2023-04-21T04:13:00.208Z,100.00
2023-04-21T04:13:56.819Z,100.00
2023-04-21T04:14:53.497Z,100.00
2023-04-21T04:15:50.350Z,100.00
2023-04-21T04:16:46.995Z,100.00
2023-04-21T04:17:43.556Z,100.00
2023-04-21T04:18:40.603Z,100.00
2023-04-21T04:19:37.187Z,100.00
2023-04-21T04:20:33.764Z,100.00
2023-04-21T04:21:32.557Z,100.00
2023-04-21T04:22:29.146Z,100.00
2023-04-21T04:23:26.186Z,100.00
2023-04-21T04:24:22.798Z,100.00
2023-04-21T04:25:19.534Z,100.00
2023-04-21T04:26:16.219Z,100.00
2023-04-21T04:27:15.400Z,99.58
2023-04-21T04:28:12.771Z,100.00
2023-04-21T04:29:10.730Z,100.00
2023-04-21T04:30:08.076Z,99.41
2023-04-21T04:31:04.822Z,99.24
2023-04-21T04:32:04.264Z,99.15
2023-04-21T04:33:01.699Z,98.84
2023-04-21T04:33:58.373Z,98.54
2023-04-21T04:34:58.962Z,98.37
2023-04-21T04:35:55.504Z,97.93
2023-04-21T04:36:52.261Z,97.48
2023-04-21T04:37:49.801Z,96.58
2023-04-21T04:38:46.921Z,95.68
2023-04-21T04:39:43.575Z,94.88
2023-04-21T04:40:40.598Z,94.59
2023-04-21T04:41:37.955Z,94.56
2023-04-21T04:42:34.809Z,94.67
2023-04-21T04:43:33.598Z,94.44
2023-04-21T04:44:30.499Z,93.96
2023-04-21T04:45:28.645Z,93.92
2023-04-21T04:46:25.821Z,93.79
2023-04-21T04:47:22.454Z,93.21
2023-04-21T04:48:19.541Z,92.67
2023-04-21T04:49:16.626Z,91.86
2023-04-21T04:50:13.246Z,91.30
2023-04-21T04:51:09.838Z,91.49
2023-04-21T04:52:07.100Z,91.05
2023-04-21T04:53:03.694Z,90.89
2023-04-21T04:54:00.307Z,90.73
2023-04-21T04:54:56.981Z,90.86
2023-04-21T04:55:53.802Z,91.21
2023-04-21T04:56:50.508Z,90.72
2023-04-21T04:57:47.122Z,90.11
2023-04-21T04:58:46.483Z,89.91
2023-04-21T04:59:43.142Z,89.86
2023-04-21T05:00:42.047Z,90.03
2023-04-21T05:01:40.202Z,89.37
2023-04-21T05:02:38.448Z,88.93
2023-04-21T05:03:35.398Z,88.10
2023-04-21T05:04:33.737Z,87.90
2023-04-21T05:05:30.689Z,87.54
2023-04-21T05:06:28.556Z,87.42
2023-04-21T05:07:25.824Z,87.46
2023-04-21T05:08:22.393Z,87.03
2023-04-21T05:09:19.001Z,86.88
2023-04-21T05:10:15.731Z,86.24
2023-04-21T05:11:12.323Z,85.69
2023-04-21T05:12:08.988Z,85.36
2023-04-21T05:13:05.792Z,85.46
2023-04-21T05:14:02.454Z,84.76
2023-04-21T05:14:59.155Z,85.08
2023-04-21T05:15:59.142Z,84.84
2023-04-21T05:16:56.044Z,84.88
2023-04-21T05:17:52.823Z,83.87
2023-04-21T05:18:53.874Z,83.30
2023-04-21T05:19:50.854Z,83.04
2023-04-21T05:20:47.382Z,83.49
2023-04-21T05:21:43.970Z,84.00
2023-04-21T05:22:41.175Z,84.82
2023-04-21T05:23:37.792Z,84.61
2023-04-21T05:24:34.879Z,85.04
2023-04-21T05:25:31.524Z,85.03
2023-04-21T05:26:29.144Z,85.46
2023-04-21T05:27:25.707Z,85.10
2023-04-21T05:28:23.246Z,84.56
2023-04-21T05:29:20.001Z,84.35
2023-04-21T05:30:16.768Z,84.38
2023-04-21T05:31:13.510Z,84.12
2023-04-21T05:32:12.318Z,84.40
2023-04-21T05:33:09.559Z,85.29
2023-04-21T05:34:06.351Z,84.87
2023-04-21T05:35:03.114Z,83.50
2023-04-21T05:35:59.758Z,82.65
2023-04-21T05:36:56.567Z,81.97
2023-04-21T05:37:53.144Z,81.46
2023-04-21T05:38:49.737Z,81.50
2023-04-21T05:39:46.533Z,81.46
2023-04-21T05:40:43.267Z,79.73
2023-04-21T05:41:42.424Z,79.93
2023-04-21T05:42:39.451Z,77.65
2023-04-21T05:43:36.062Z,78.52
2023-04-21T05:44:32.620Z,78.91
2023-04-21T05:45:29.251Z,80.12
2023-04-21T05:46:26.016Z,79.33
2023-04-21T05:47:22.779Z,79.04
2023-04-21T05:48:19.649Z,78.52
2023-04-21T05:49:16.334Z,79.25
2023-04-21T05:50:13.124Z,78.56
2023-04-21T05:51:11.166Z,78.96
2023-04-21T05:52:10.502Z,77.80
2023-04-21T05:53:07.144Z,78.09
2023-04-21T05:54:03.866Z,77.99
2023-04-21T05:55:01.259Z,78.22
2023-04-21T05:55:57.849Z,79.53
2023-04-21T05:56:54.427Z,80.00
2023-04-21T05:57:51.123Z,80.65
2023-04-21T05:58:47.771Z,80.46
2023-04-21T05:59:44.471Z,79.32
2023-04-21T06:00:42.520Z,78.91
2023-04-21T06:01:39.124Z,77.89
2023-04-21T06:02:35.944Z,78.06
2023-04-21T06:03:33.527Z,78.58
2023-04-21T06:04:30.695Z,78.69
2023-04-21T06:05:27.654Z,77.65
2023-04-21T06:06:27.760Z,77.97
2023-04-21T06:07:24.398Z,76.96
2023-04-21T06:08:21.401Z,76.05
2023-04-21T06:09:18.103Z,77.04
2023-04-21T06:10:14.908Z,77.74
2023-04-21T06:11:11.598Z,77.31
2023-04-21T06:12:08.279Z,76.45
2023-04-21T06:13:04.898Z,76.59
2023-04-21T06:14:01.889Z,76.92
2023-04-21T06:14:59.308Z,76.93
2023-04-21T06:15:55.952Z,77.18
2023-04-21T06:16:52.555Z,77.76
2023-04-21T06:17:54.128Z,78.40
2023-04-21T06:18:50.750Z,78.34
2023-04-21T06:19:52.927Z,77.93
2023-04-21T06:20:56.718Z,77.38
2023-04-21T06:21:53.304Z,75.75
2023-04-21T06:22:50.543Z,75.64
2023-04-21T06:23:47.146Z,76.67
2023-04-21T06:24:43.752Z,76.59
2023-04-21T06:25:40.383Z,75.60
2023-04-21T06:26:36.953Z,76.14
2023-04-21T06:27:33.762Z,76.06
2023-04-21T06:28:33.682Z,75.62
2023-04-21T06:29:30.309Z,75.42
2023-04-21T06:30:26.898Z,76.85
2023-04-21T06:31:23.702Z,76.94
2023-04-21T06:32:20.495Z,76.68
2023-04-21T06:33:17.097Z,76.35
2023-04-21T06:34:13.718Z,73.70
2023-04-21T06:35:10.580Z,74.15
2023-04-21T06:36:07.647Z,74.35
2023-04-21T06:37:04.497Z,75.85
2023-04-21T06:38:01.088Z,74.24
2023-04-21T06:38:57.775Z,73.52
2023-04-21T06:39:54.456Z,75.81
2023-04-21T06:40:51.358Z,76.88
2023-04-21T06:41:47.947Z,75.06
2023-04-21T06:42:44.574Z,74.39
2023-04-21T06:43:41.481Z,74.60
2023-04-21T06:44:39.085Z,75.45
2023-04-21T06:45:35.659Z,76.33
2023-04-21T06:46:32.358Z,74.23
2023-04-21T06:47:29.027Z,74.72
2023-04-21T06:48:26.452Z,72.90
2023-04-21T06:49:23.210Z,72.74
2023-04-21T06:50:19.786Z,71.38
2023-04-21T06:51:16.380Z,72.11
2023-04-21T06:52:13.150Z,72.63
2023-04-21T06:53:11.677Z,72.87
2023-04-21T06:54:08.326Z,70.87
2023-04-21T06:55:05.821Z,71.43
2023-04-21T06:56:03.289Z,71.64
2023-04-21T06:56:59.978Z,71.57
2023-04-21T06:57:56.595Z,72.77
2023-04-21T06:58:53.410Z,71.97
2023-04-21T06:59:49.988Z,72.28
2023-04-21T07:00:46.552Z,71.23
2023-04-21T07:01:43.165Z,71.29
2023-04-21T07:02:39.870Z,70.22
2023-04-21T07:03:36.776Z,69.94
2023-04-21T07:04:33.545Z,71.98
2023-04-21T07:05:30.353Z,72.10
2023-04-21T07:06:27.252Z,72.99
2023-04-21T07:07:23.879Z,72.02
2023-04-21T07:08:20.465Z,72.38
2023-04-21T07:09:17.256Z,71.52
2023-04-21T07:10:19.155Z,71.28
2023-04-21T07:11:15.804Z,72.80
2023-04-21T07:12:12.409Z,72.63
2023-04-21T07:13:10.104Z,73.03
2023-04-21T07:14:06.919Z,73.40
2023-04-21T07:15:03.986Z,73.14
2023-04-21T07:16:00.722Z,72.69
2023-04-21T07:16:57.493Z,69.42
2023-04-21T07:17:54.240Z,69.61
2023-04-21T07:18:50.851Z,70.26
2023-04-21T07:19:47.558Z,71.99
2023-04-21T07:20:44.343Z,71.21
2023-04-21T07:21:40.963Z,71.09
2023-04-21T07:22:37.666Z,72.06
2023-04-21T07:23:34.224Z,72.45
2023-04-21T07:24:31.181Z,72.92
2023-04-21T07:25:27.797Z,72.55
2023-04-21T07:26:24.736Z,71.65
2023-04-21T07:27:21.376Z,70.90
2023-04-21T07:28:18.041Z,70.04
2023-04-21T07:29:14.602Z,70.52
2023-04-21T07:30:11.686Z,69.48
2023-04-21T07:31:08.320Z,68.52
2023-04-21T07:32:04.911Z,68.38
2023-04-21T07:33:01.561Z,67.12
2023-04-21T07:33:58.227Z,67.15
2023-04-21T07:34:54.882Z,69.10
2023-04-21T07:35:51.496Z,69.53
2023-04-21T07:36:48.191Z,71.37
2023-04-21T07:37:44.820Z,69.14
2023-04-21T07:38:43.520Z,68.32
2023-04-21T07:39:40.114Z,69.45
2023-04-21T07:40:36.753Z,68.32
2023-04-21T07:41:33.664Z,68.10
2023-04-21T07:42:30.524Z,69.10
2023-04-21T07:43:27.313Z,69.99
2023-04-21T07:44:24.098Z,71.92
2023-04-21T07:45:21.009Z,70.96
2023-04-21T07:46:17.763Z,69.98
2023-04-21T07:47:14.704Z,70.64
2023-04-21T07:48:11.339Z,71.55
2023-04-21T07:49:08.256Z,70.52
2023-04-21T07:50:05.299Z,70.85
2023-04-21T07:51:03.395Z,70.16
2023-04-21T07:52:00.003Z,68.65
2023-04-21T07:52:56.739Z,68.08
2023-04-21T07:53:53.988Z,68.06
2023-04-21T07:54:51.210Z,66.79
2023-04-21T07:55:47.748Z,65.52
2023-04-21T07:56:44.320Z,66.86
2023-04-21T07:57:41.030Z,67.17
2023-04-21T07:58:37.647Z,65.68
2023-04-21T07:59:34.299Z,66.44
2023-04-21T08:00:31.125Z,66.07
2023-04-21T08:01:27.882Z,66.51
2023-04-21T08:02:24.513Z,66.40
2023-04-21T08:03:23.822Z,64.38
2023-04-21T08:04:21.204Z,62.12
2023-04-21T08:05:18.498Z,60.42
2023-04-21T08:06:15.544Z,63.32
2023-04-21T08:07:13.821Z,62.12
2023-04-21T08:08:10.622Z,61.32
2023-04-21T08:09:07.441Z,61.69
2023-04-21T08:10:04.315Z,62.38
2023-04-21T08:11:01.492Z,64.42
2023-04-21T08:11:58.191Z,63.79
2023-04-21T08:12:54.806Z,62.55
2023-04-21T08:13:51.624Z,64.28
2023-04-21T08:14:49.637Z,63.06
2023-04-21T08:15:46.346Z,63.90
2023-04-21T08:16:43.232Z,63.61
2023-04-21T08:17:40.058Z,63.48
2023-04-21T08:18:36.753Z,64.32
2023-04-21T08:19:33.449Z,63.59
2023-04-21T08:20:30.339Z,64.40
2023-04-21T08:21:27.963Z,64.12
2023-04-21T08:22:25.638Z,62.65
2023-04-21T08:23:22.340Z,63.30
2023-04-21T08:24:19.279Z,63.89
2023-04-21T08:25:16.159Z,64.89
2023-04-21T08:26:13.311Z,63.67
2023-04-21T08:27:10.132Z,63.84
2023-04-21T08:28:06.961Z,64.67
2023-04-21T08:29:05.542Z,64.47
2023-04-21T08:30:02.183Z,65.23
2023-04-21T08:31:00.493Z,65.08
2023-04-21T08:31:57.192Z,65.19
2023-04-21T08:32:54.016Z,64.20
2023-04-21T08:34:01.305Z,65.63
2023-04-21T08:34:58.857Z,64.38
2023-04-21T08:36:58.195Z,66.10
2023-04-21T08:37:54.809Z,66.29
2023-04-21T08:38:51.457Z,66.64
2023-04-21T08:39:50.894Z,66.35
2023-04-21T08:40:48.042Z,66.32
2023-04-21T08:41:44.805Z,66.93
2023-04-21T08:42:41.953Z,66.82
2023-04-21T08:43:40.675Z,66.43
2023-04-21T08:44:37.470Z,66.37
2023-04-21T08:45:35.101Z,66.84
2023-04-21T08:46:33.551Z,67.45
2023-04-21T08:47:32.225Z,67.02
2023-04-21T08:48:29.889Z,67.02
2023-04-21T08:49:30.942Z,67.07
2023-04-21T08:50:29.715Z,65.28
2023-04-21T08:51:28.787Z,65.49
2023-04-21T08:52:25.646Z,66.28
2023-04-21T08:53:22.423Z,66.56
2023-04-21T08:54:19.022Z,67.42
2023-04-21T08:55:16.115Z,69.90
2023-04-21T08:56:12.664Z,70.79
2023-04-21T08:57:15.449Z,69.29
2023-04-21T08:58:13.467Z,69.45
2023-04-21T08:59:10.179Z,69.91
2023-04-21T09:00:08.174Z,69.88
2023-04-21T09:01:05.448Z,71.22
2023-04-21T09:02:16.786Z,71.32
2023-04-21T09:03:24.926Z,71.53
2023-04-21T09:04:22.571Z,68.77
2023-04-21T09:05:31.015Z,67.97
2023-04-21T09:06:41.459Z,66.71
2023-04-21T09:07:41.527Z,66.69
2023-04-21T09:08:42.187Z,67.47
2023-04-21T09:09:52.526Z,66.98
2023-04-21T09:10:50.801Z,66.34
2023-04-21T09:11:58.916Z,63.40
2023-04-21T09:12:56.074Z,64.94
2023-04-21T09:13:57.089Z,64.98
2023-04-21T09:14:54.197Z,65.42
2023-04-21T09:15:54.112Z,63.80
2023-04-21T09:17:01.218Z,64.52
2023-04-21T09:17:57.961Z,63.52
2023-04-21T09:18:54.735Z,63.29
2023-04-21T09:19:51.496Z,62.46
2023-04-21T09:20:50.843Z,62.95
2023-04-21T09:21:47.467Z,62.69
2023-04-21T09:22:44.937Z,60.49
2023-04-21T09:23:45.503Z,62.69
2023-04-21T09:24:49.519Z,62.55
2023-04-21T09:25:46.201Z,59.86
2023-04-21T09:26:42.914Z,59.87
2023-04-21T09:27:41.642Z,60.29
2023-04-21T09:28:44.781Z,60.38
2023-04-21T09:29:48.180Z,59.12
2023-04-21T09:30:45.201Z,58.30
2023-04-21T09:31:44.449Z,56.15
2023-04-21T09:32:41.763Z,57.99
2023-04-21T09:33:49.596Z,57.61
2023-04-21T09:35:01.017Z,57.87
2023-04-21T09:36:01.570Z,57.76
2023-04-21T09:37:05.117Z,56.33
2023-04-21T09:38:12.408Z,58.18
2023-04-21T09:40:12.834Z,58.04
2023-04-21T09:41:09.435Z,60.53
2023-04-21T09:42:06.609Z,61.98
2023-04-21T09:43:03.342Z,62.06
2023-04-21T09:44:04.723Z,61.99
2023-04-21T09:45:28.436Z,60.71
2023-04-21T09:46:19.694Z,60.89
2023-04-21T09:47:17.040Z,64.91
2023-04-21T09:48:17.573Z,65.11
2023-04-21T09:49:17.560Z,62.71
2023-04-21T09:50:16.338Z,63.71
2023-04-21T09:51:28.733Z,70.05
2023-04-21T09:52:33.759Z,73.23
2023-04-21T09:53:35.145Z,73.68
2023-04-21T09:54:33.124Z,74.21
2023-04-21T09:55:31.247Z,72.84
2023-04-21T09:56:30.256Z,73.13
2023-04-21T09:57:28.916Z,72.44
2023-04-21T09:58:31.408Z,74.00
2023-04-21T09:59:35.589Z,73.50
2023-04-21T10:00:33.583Z,69.45
2023-04-21T10:01:30.930Z,65.99
2023-04-21T10:02:31.398Z,63.72
2023-04-21T10:03:29.865Z,65.39
2023-04-21T10:04:29.411Z,66.12
2023-04-21T10:05:26.630Z,65.20
2023-04-21T10:06:23.570Z,65.79
2023-04-21T10:07:20.201Z,69.39
2023-04-21T10:08:17.450Z,67.67
2023-04-21T10:09:18.419Z,66.44
2023-04-21T10:10:28.345Z,67.54
2023-04-21T10:11:25.035Z,67.21
2023-04-21T10:12:22.772Z,65.15
2023-04-21T10:13:19.544Z,66.60
2023-04-21T10:14:16.232Z,64.70
2023-04-21T10:15:32.574Z,68.25
2023-04-21T10:16:29.324Z,65.12
2023-04-21T10:17:26.892Z,64.54
2023-04-21T10:18:25.270Z,64.79
2023-04-21T10:19:27.039Z,63.22
2023-04-21T10:20:23.611Z,66.58
2023-04-21T10:21:22.195Z,68.57
2023-04-21T10:22:30.045Z,72.85
2023-04-21T10:23:33.047Z,75.12
2023-04-21T10:24:30.874Z,77.24
2023-04-21T10:25:29.759Z,79.32
2023-04-21T10:26:32.637Z,78.12
2023-04-21T10:27:34.737Z,77.34
2023-04-21T10:29:00.215Z,77.23
2023-04-21T10:29:58.655Z,79.49
2023-04-21T10:31:33.712Z,78.14
2023-04-21T10:32:43.414Z,73.98
2023-04-21T10:33:40.049Z,76.38
2023-04-21T10:34:41.256Z,76.94
2023-04-21T10:36:00.243Z,77.81
2023-04-21T10:36:57.297Z,78.04
2023-04-21T10:37:54.070Z,78.55
2023-04-21T10:38:57.231Z,77.23
2023-04-21T10:39:55.532Z,76.01
2023-04-21T10:40:52.117Z,75.90
2023-04-21T10:41:48.729Z,76.53
2023-04-21T10:42:45.384Z,73.94
2023-04-21T10:43:49.255Z,75.13
2023-04-21T10:44:56.513Z,72.84
2023-04-21T10:45:55.864Z,70.60
2023-04-21T10:46:54.021Z,71.84
2023-04-21T10:47:53.049Z,68.86
2023-04-21T10:48:52.965Z,68.21
2023-04-21T10:49:50.098Z,67.86
2023-04-21T10:50:48.866Z,67.68
2023-04-21T10:52:03.440Z,66.75
2023-04-21T10:53:10.300Z,67.28
2023-04-21T10:54:06.939Z,66.87
2023-04-21T10:55:04.032Z,66.81
2023-04-21T10:56:01.087Z,65.15
2023-04-21T10:56:59.327Z,64.00
2023-04-21T10:57:56.389Z,65.81
2023-04-21T10:58:53.450Z,66.01
2023-04-21T10:59:50.106Z,62.80
2023-04-21T11:00:46.994Z,63.34
2023-04-21T11:01:43.639Z,60.76
2023-04-21T11:02:41.863Z,63.16
2023-04-21T11:03:41.210Z,61.63
2023-04-21T11:04:45.274Z,61.13
2023-04-21T11:05:42.603Z,62.47
2023-04-21T11:06:39.274Z,60.66
2023-04-21T11:07:36.020Z,60.06
2023-04-21T11:08:32.596Z,61.02
2023-04-21T11:09:29.271Z,61.69
2023-04-21T11:10:25.881Z,60.22
2023-04-21T11:11:27.122Z,61.37
2023-04-21T11:12:47.106Z,57.85
2023-04-21T11:13:43.699Z,60.28
2023-04-21T11:14:41.908Z,56.98
2023-04-21T11:15:40.918Z,56.52
2023-04-21T11:16:38.102Z,59.43
2023-04-21T11:17:36.261Z,58.78
2023-04-21T11:18:43.981Z,54.32
2023-04-21T11:19:40.753Z,55.80
2023-04-21T11:20:41.647Z,55.33
2023-04-21T11:21:38.565Z,53.68
2023-04-21T11:22:37.259Z,53.90
2023-04-21T11:23:33.911Z,54.37
2023-04-21T11:24:31.712Z,54.71
2023-04-21T11:25:28.364Z,55.28
2023-04-21T11:26:40.860Z,54.22
2023-04-21T11:27:37.538Z,55.71
2023-04-21T11:28:34.175Z,55.32
2023-04-21T11:29:30.910Z,55.87
2023-04-21T11:30:35.108Z,55.41
2023-04-21T11:31:32.670Z,53.46
2023-04-21T11:32:29.565Z,53.50
2023-04-21T11:33:29.307Z,54.77
2023-04-21T11:34:26.946Z,54.46
2023-04-21T11:35:23.753Z,53.47
2023-04-21T11:36:22.079Z,54.07
2023-04-21T11:37:29.897Z,55.86
2023-04-21T11:38:26.606Z,57.08
2023-04-21T11:39:23.703Z,56.04
2023-04-21T11:40:20.518Z,56.50
2023-04-21T11:41:25.599Z,57.28
2023-04-21T11:42:22.906Z,56.42
2023-04-21T11:43:21.286Z,57.30
2023-04-21T11:44:41.339Z,57.41
2023-04-21T11:45:38.228Z,58.90
2023-04-21T11:46:37.373Z,60.41
2023-04-21T11:47:34.089Z,60.07
2023-04-21T11:48:30.734Z,60.55
2023-04-21T11:49:30.726Z,60.11
2023-04-21T11:50:33.970Z,57.65
2023-04-21T11:51:39.718Z,59.13
2023-04-21T11:52:37.686Z,59.19
2023-04-21T11:53:34.379Z,60.84
2023-04-21T11:54:31.102Z,58.90
2023-04-21T11:55:28.896Z,59.84
2023-04-21T11:56:25.572Z,58.45
2023-04-21T11:57:23.145Z,59.46
2023-04-21T11:58:21.394Z,59.15
2023-04-21T11:59:26.394Z,59.40
2023-04-21T12:00:23.042Z,59.88
2023-04-21T12:01:21.597Z,58.94
2023-04-21T12:02:29.419Z,60.47
2023-04-21T12:03:26.576Z,60.48
2023-04-21T12:04:26.014Z,60.49
2023-04-21T12:05:23.885Z,60.44
2023-04-21T12:06:22.052Z,59.63
2023-04-21T12:07:23.006Z,60.04
2023-04-21T12:08:19.682Z,60.89
2023-04-21T12:09:21.040Z,59.55
2023-04-21T12:10:21.505Z,58.47
2023-04-21T12:11:18.303Z,60.36
2023-04-21T12:12:15.446Z,60.13
2023-04-21T12:13:12.409Z,59.01
2023-04-21T12:14:09.174Z,59.45
2023-04-21T12:15:07.446Z,59.95
2023-04-21T12:16:04.418Z,58.90
2023-04-21T12:17:01.088Z,60.17
2023-04-21T12:17:57.798Z,60.00
2023-04-21T12:18:56.027Z,60.43
2023-04-21T12:19:52.772Z,58.72
2023-04-21T12:20:53.061Z,57.27
2023-04-21T12:21:58.809Z,56.20
2023-04-21T12:22:56.529Z,55.40
2023-04-21T12:23:53.100Z,55.61
2023-04-21T12:24:49.696Z,55.61
2023-04-21T12:25:47.093Z,55.75
2023-04-21T12:26:44.274Z,55.06
2023-04-21T12:27:59.305Z,56.10
2023-04-21T12:28:56.203Z,55.87